Time;durP1;ratioP1;P1;durP2;ratioP2;P2;SDS_P1;SDS_P2;PMS_P1;PMS_P2;Temp;Humidity;BMP_temperature;BMP_pressure;BME280_temperature;BME280_humidity;BME280_pressure;Samples;Min_cycle;Max_cycle;Signal;HPM_P1;HPM_P2
2023/04/02 00:00:34;;;;;;;10.27;4.32;;;;;;;8.92;100.00;100543.63;5063552;28;20059;-74
2023/04/02 00:03:02;;;;;;;8.45;5.00;;;;;;;8.83;100.00;100552.28;5068188;28;20106;-74
2023/04/02 00:05:49;;;;;;;8.05;4.43;;;;;;;8.74;100.00;100553.81;5067258;28;20502;-73
2023/04/02 00:08:24;;;;;;;11.13;4.85;;;;;;;8.76;100.00;100557.78;5062714;28;20071;-73
2023/04/02 00:10:58;;;;;;;9.90;5.00;;;;;;;8.75;100.00;100555.41;5067259;28;20044;-74
2023/04/02 00:13:35;;;;;;;8.15;3.63;;;;;;;8.83;100.00;100566.06;5067638;28;20045;-74
2023/04/02 00:16:05;;;;;;;8.80;4.43;;;;;;;8.80;100.00;100569.59;5066807;28;20041;-73
2023/04/02 00:18:35;;;;;;;6.80;3.85;;;;;;;8.84;100.00;100578.69;5067241;28;20867;-73
2023/04/02 00:21:09;;;;;;;6.30;3.20;;;;;;;8.84;100.00;100592.47;5067330;28;20048;-73
2023/04/02 00:23:40;;;;;;;8.68;4.55;;;;;;;8.83;100.00;100604.69;5064966;28;20048;-74
2023/04/02 00:26:35;;;;;;;8.85;4.53;;;;;;;8.79;100.00;100606.66;5062238;28;20048;-74
2023/04/02 00:29:06;;;;;;;9.48;4.53;;;;;;;8.80;100.00;100613.75;5066842;28;20045;-72
2023/04/02 00:31:37;;;;;;;11.63;4.50;;;;;;;8.75;100.00;100611.38;5061136;28;20151;-72
2023/04/02 00:34:07;;;;;;;11.07;4.28;;;;;;;8.71;100.00;100616.06;5067265;28;20571;-74
2023/04/02 00:36:35;;;;;;;9.30;4.72;;;;;;;8.70;100.00;100621.97;5063093;28;20048;-74
2023/04/02 00:39:11;;;;;;;7.95;4.28;;;;;;;8.64;100.00;100629.81;5065904;28;20048;-73
2023/04/02 00:41:37;;;;;;;;;;;;;;;8.62;100.00;100637.69;5074403;28;20426;-73
2023/04/02 00:44:04;;;;;;;7.15;3.47;;;;;;;8.61;100.00;100638.84;5067520;28;19968;-73
2023/04/02 00:46:45;;;;;;;9.45;4.93;;;;;;;8.53;100.00;100640.00;5069635;28;20057;-71
2023/04/02 00:49:31;;;;;;;7.60;3.70;;;;;;;8.51;100.00;100644.31;5064108;28;20060;-73
2023/04/02 00:52:02;;;;;;;8.45;3.90;;;;;;;8.49;100.00;100655.75;5062528;28;20044;-74
2023/04/02 00:54:32;;;;;;;8.85;4.45;;;;;;;8.48;100.00;100654.16;5065489;28;20056;-72
2023/04/02 00:57:00;;;;;;;9.85;4.32;;;;;;;8.47;100.00;100666.34;5072198;28;20059;-72
2023/04/02 00:59:33;;;;;;;3.15;1.98;;;;;;;8.47;100.00;100666.34;5065620;28;20059;-73
2023/04/02 01:02:16;;;;;;;9.52;4.05;;;;;;;8.44;100.00;100675.38;5065691;28;20521;-72
2023/04/02 01:04:56;;;;;;;9.27;3.97;;;;;;;8.48;100.00;100669.91;5064238;28;20063;-73
2023/04/02 01:07:46;;;;;;;9.02;4.10;;;;;;;8.43;100.00;100682.09;5066879;28;20079;-74
2023/04/02 01:10:18;;;;;;;8.93;4.05;;;;;;;8.42;100.00;100687.97;5067790;28;20076;-73
2023/04/02 01:12:51;;;;;;;10.75;4.47;;;;;;;8.46;100.00;100697.88;5057073;28;20094;-72
2023/04/02 01:15:20;;;;;;;8.32;3.72;;;;;;;8.43;100.00;100689.59;5057394;28;20061;-73
2023/04/02 01:18:12;;;;;;;10.18;4.63;;;;;;;8.40;100.00;100696.63;5061457;28;20632;-72
2023/04/02 01:20:41;;;;;;;8.82;4.07;;;;;;;8.29;100.00;100701.28;5062780;28;20044;-73
2023/04/02 01:23:16;;;;;;;9.48;5.03;;;;;;;8.25;100.00;100696.91;5065701;28;20050;-73
2023/04/02 01:25:52;;;;;;;12.10;4.60;;;;;;;8.24;100.00;100712.69;5060590;28;20041;-73
2023/04/02 01:29:04;;;;;;;8.73;4.60;;;;;;;8.15;100.00;100701.13;5067230;28;20045;-74
2023/04/02 01:31:32;;;;;;;5.80;3.03;;;;;;;8.21;100.00;100720.88;5011467;28;20058;-73
2023/04/02 01:34:01;;;;;;;9.13;4.78;;;;;;;8.22;100.00;100720.53;5061678;28;20126;-73
2023/04/02 01:36:37;;;;;;;6.28;3.20;;;;;;;8.15;100.00;100736.16;5065042;28;20048;-74
2023/04/02 01:39:06;;;;;;;8.27;4.10;;;;;;;8.16;100.00;100735.03;5065598;28;20041;-73
2023/04/02 01:41:47;;;;;;;6.22;3.90;;;;;;;8.09;100.00;100738.47;5063154;28;20052;-73
2023/04/02 01:44:41;;;;;;;5.25;2.95;;;;;;;8.05;100.00;100737.66;5065725;28;20786;-73
2023/04/02 01:47:15;;;;;;;4.53;2.70;;;;;;;8.02;100.00;100753.00;5064805;28;20044;-71
2023/04/02 01:49:43;;;;;;;7.22;3.50;;;;;;;8.05;100.00;100759.72;5065174;28;20055;-73
2023/04/02 01:52:25;;;;;;;9.95;3.63;;;;;;;7.98;100.00;100759.63;5065496;28;20041;-73
2023/04/02 01:54:52;;;;;;;8.45;3.28;;;;;;;8.07;100.00;100764.84;5060663;28;20060;-73
2023/04/02 01:57:19;;;;;;;7.22;3.45;;;;;;;8.06;100.00;100760.50;5068939;28;20143;-74
2023/04/02 01:59:46;;;;;;;5.65;3.22;;;;;;;8.02;100.00;100768.72;5047333;28;20048;-74
2023/04/02 02:02:13;;;;;;;11.73;4.38;;;;;;;8.00;100.00;100771.06;5065351;28;20055;-74
2023/04/02 02:04:40;;;;;;;8.13;4.32;;;;;;;7.99;100.00;100783.25;5065439;28;20048;-74
2023/04/02 02:07:15;;;;;;;7.82;3.63;;;;;;;8.01;100.00;100786.44;5060257;28;20055;-73
2023/04/02 02:09:42;;;;;;;9.57;3.85;;;;;;;7.98;100.00;100776.19;5057787;28;20057;-72
2023/04/02 02:12:13;;;;;;;7.53;4.00;;;;;;;8.02;100.00;100786.06;5062059;28;20045;-73
2023/04/02 02:14:48;;;;;;;10.73;4.28;;;;;;;8.00;100.00;100782.88;5065053;28;20127;-73
2023/04/02 02:17:18;;;;;;;7.13;2.92;;;;;;;7.95;100.00;100794.25;5059329;28;20403;-73
2023/04/02 02:19:48;;;;;;;9.25;4.18;;;;;;;8.01;100.00;100802.97;5060023;28;20402;-73
2023/04/02 02:22:23;;;;;;;7.95;4.00;;;;;;;7.98;100.00;100809.22;5046888;28;20088;-74
2023/04/02 02:24:50;;;;;;;5.80;2.67;;;;;;;7.99;100.00;100813.56;5056443;28;20063;-73
2023/04/02 02:27:22;;;;;;;7.97;3.75;;;;;;;7.94;100.00;100819.44;5065029;28;20051;-73
2023/04/02 02:30:15;;;;;;;5.85;3.22;;;;;;;7.90;100.00;100824.88;5059192;28;20140;-73
2023/04/02 02:32:55;;;;;;;6.07;2.50;;;;;;;7.91;100.00;100837.47;5060815;28;20079;-73
2023/04/02 02:36:02;;;;;;;9.25;4.32;;;;;;;7.93;100.00;100839.88;5061718;28;20059;-73
2023/04/02 02:38:38;;;;;;;;;;;;;;;7.91;100.00;100839.47;5023449;28;20045;-72
2023/04/02 02:41:17;;;;;;;8.23;4.25;;;;;;;7.87;100.00;100850.44;5057551;28;19935;-73
2023/04/02 02:44:01;;;;;;;7.57;3.95;;;;;;;7.83;100.00;100857.06;5055926;28;20056;-73
2023/04/02 02:46:30;;;;;;;6.55;3.08;;;;;;;7.86;100.00;100859.06;5062756;28;20059;-72
2023/04/02 02:48:58;;;;;;;9.73;4.43;;;;;;;7.83;100.00;100868.06;5064169;28;20068;-70
2023/04/02 02:51:38;;;;;;;10.60;4.80;;;;;;;7.78;100.00;100874.75;5061970;28;20144;-72
2023/04/02 02:54:06;;;;;;;8.77;4.05;;;;;;;7.67;100.00;100870.25;5060932;28;20525;-73
2023/04/02 02:56:40;;;;;;;10.35;4.60;;;;;;;7.65;100.00;100878.88;5066911;28;20062;-73
2023/04/02 02:59:10;;;;;;;12.98;4.68;;;;;;;7.60;100.00;100881.94;5062984;28;20050;-73
2023/04/02 03:01:36;;;;;;;9.18;4.18;;;;;;;7.60;100.00;100890.22;5066143;28;20056;-72
2023/04/02 03:04:03;;;;;;;9.02;4.47;;;;;;;7.63;100.00;100914.25;5064032;28;20048;-72
2023/04/02 03:06:30;;;;;;;8.32;4.30;;;;;;;7.53;100.00;100905.88;5063777;28;20098;-73
2023/04/02 03:09:27;;;;;;;8.52;3.92;;;;;;;7.45;100.00;100904.16;5067459;28;20044;-73
2023/04/02 03:12:05;;;;;;;9.23;4.32;;;;;;;7.45;100.00;100915.97;5063976;28;20052;-73
2023/04/02 03:14:37;;;;;;;10.65;4.88;;;;;;;7.41;100.00;100912.38;5065216;28;20048;-73
2023/04/02 03:17:15;;;;;;;8.82;4.47;;;;;;;7.38;100.00;100918.63;5065564;28;20051;-74
2023/04/02 03:19:57;;;;;;;11.13;5.95;;;;;;;7.29;100.00;100923.59;5062649;28;20048;-73
2023/04/02 03:22:31;;;;;;;9.07;4.85;;;;;;;7.31;100.00;100926.78;5068140;28;20053;-73
2023/04/02 03:25:30;;;;;;;11.68;5.50;;;;;;;7.29;100.00;100931.06;5055576;28;20080;-72
2023/04/02 03:28:02;;;;;;;11.63;5.68;;;;;;;7.34;100.00;100947.25;5061807;28;20052;-73
2023/04/02 03:30:45;;;;;;;9.07;4.35;;;;;;;7.22;100.00;100945.50;5069746;28;20049;-73
2023/04/02 03:33:23;;;;;;;11.40;5.18;;;;;;;7.30;100.00;100949.16;5044151;28;20052;-70
2023/04/02 03:36:11;;;;;;;12.82;5.72;;;;;;;7.28;100.00;100962.50;5052291;28;20057;-72
2023/04/02 03:38:45;;;;;;;10.82;5.28;;;;;;;7.27;100.00;100958.97;5056654;28;20419;-72
2023/04/02 03:41:30;;;;;;;13.38;5.35;;;;;;;7.32;100.00;100971.59;5061150;28;20053;-72
2023/04/02 03:44:02;;;;;;;9.27;5.50;;;;;;;7.31;100.00;100972.78;5064909;28;20936;-72
2023/04/02 03:46:43;;;;;;;15.25;5.40;;;;;;;7.25;100.00;100990.75;5064074;28;20673;-72
2023/04/02 03:49:22;;;;;;;10.05;4.85;;;;;;;7.19;100.00;100993.03;5058468;28;20045;-72
2023/04/02 03:52:04;;;;;;;11.05;5.82;;;;;;;7.18;100.00;100994.19;5063188;28;20063;-72
2023/04/02 03:54:31;;;;;;;10.65;4.82;;;;;;;7.17;100.00;101000.88;5067486;28;20070;-71
2023/04/02 03:56:59;;;;;;;11.07;5.40;;;;;;;7.16;100.00;100998.47;5069316;28;20147;-74
2023/04/02 03:59:47;;;;;;;15.20;6.43;;;;;;;7.13;100.00;101010.22;5068086;28;20538;-71
2023/04/02 04:02:39;;;;;;;15.50;7.68;;;;;;;7.18;100.00;101023.66;5069779;28;20060;-73
2023/04/02 04:05:18;;;;;;;14.80;6.07;;;;;;;7.14;100.00;101025.56;5064817;28;20094;-72
2023/04/02 04:07:45;;;;;;;13.60;6.50;;;;;;;7.09;100.00;101025.88;5061819;28;20048;-73
2023/04/02 04:10:21;;;;;;;17.45;7.05;;;;;;;7.11;100.00;101040.03;5059812;28;20417;-69
2023/04/02 04:12:50;;;;;;;18.02;6.22;;;;;;;7.15;100.00;101046.41;5064734;28;20521;-71
2023/04/02 04:15:27;;;;;;;17.10;6.32;;;;;;;7.13;100.00;101048.75;5077055;28;20782;-72
2023/04/02 04:18:01;;;;;;;16.65;7.70;;;;;;;7.06;100.00;101046.63;5059585;28;20128;-74
2023/04/02 04:20:39;;;;;;;16.90;7.40;;;;;;;7.07;100.00;101052.94;5063327;28;20119;-72
2023/04/02 04:23:28;;;;;;;11.90;4.82;;;;;;;7.02;100.00;101070.53;5064321;28;20055;-71
2023/04/02 04:25:57;;;;;;;15.85;6.60;;;;;;;6.98;100.00;101064.19;5065193;28;20048;-74
2023/04/02 04:28:37;;;;;;;17.95;8.27;;;;;;;7.01;100.00;101079.16;5047136;28;20059;-73
2023/04/02 04:31:29;;;;;;;19.15;8.35;;;;;;;6.89;100.00;101093.09;5060692;28;20044;-73
2023/04/02 04:34:05;;;;;;;11.57;5.00;;;;;;;6.82;100.00;101092.97;5039164;28;20423;-71
2023/04/02 04:36:34;;;;;;;;;;;;;;;6.87;100.00;101107.22;5055959;28;20058;-70
2023/04/02 04:39:13;;;;;;;16.52;7.88;;;;;;;6.79;100.00;101099.19;5052170;28;19938;-72
2023/04/02 04:41:41;;;;;;;17.55;8.40;;;;;;;6.78;100.00;101103.88;5058231;28;20191;-73
2023/04/02 04:44:19;;;;;;;16.08;6.85;;;;;;;6.76;100.00;101114.47;5067268;28;20431;-74
2023/04/02 04:47:02;;;;;;;18.73;9.50;;;;;;;6.77;100.00;101118.78;5061413;28;20051;-74
2023/04/02 04:49:43;;;;;;;19.17;7.95;;;;;;;6.81;100.00;101129.84;5064367;28;20037;-73
2023/04/02 04:52:36;;;;;;;18.48;8.35;;;;;;;6.83;100.00;101133.03;5061780;28;20052;-74
2023/04/02 04:55:21;;;;;;;16.98;8.05;;;;;;;6.82;100.00;101134.22;5048200;28;20055;-73
2023/04/02 04:57:49;;;;;;;15.30;7.57;;;;;;;6.81;100.00;101140.84;5068022;28;20044;-74
2023/04/02 05:00:39;;;;;;;19.02;9.10;;;;;;;6.84;100.00;101140.13;5061779;28;20048;-74
2023/04/02 05:03:17;;;;;;;19.60;9.55;;;;;;;6.78;100.00;101156.13;5057357;28;20056;-73
2023/04/02 05:05:44;;;;;;;18.80;8.32;;;;;;;6.78;100.00;101163.59;5050318;28;20063;-74
2023/04/02 05:08:18;;;;;;;19.27;8.63;;;;;;;6.83;100.00;101177.06;5063151;28;20048;-73
2023/04/02 05:11:02;;;;;;;10.63;4.15;;;;;;;6.76;100.00;101168.66;5063293;28;20045;-73
2023/04/02 05:13:43;;;;;;;17.00;8.38;;;;;;;6.70;100.00;101183.84;5060499;28;20048;-73
2023/04/02 05:16:25;;;;;;;20.05;8.10;;;;;;;6.71;100.00;101191.72;5064739;28;20055;-73
2023/04/02 05:19:40;;;;;;;19.15;7.75;;;;;;;6.71;100.00;101193.69;5054517;28;20056;-73
2023/04/02 05:22:19;;;;;;;17.73;7.38;;;;;;;6.69;100.00;101210.56;5022487;28;20045;-74
2023/04/02 05:24:46;;;;;;;20.55;7.95;;;;;;;6.65;100.00;101208.88;5047071;28;20672;-73
2023/04/02 05:27:26;;;;;;;17.42;6.40;;;;;;;6.66;100.00;101215.97;5070783;28;20056;-73
2023/04/02 05:30:02;;;;;;;16.73;7.10;;;;;;;6.64;100.00;101219.06;5063628;28;20055;-74
2023/04/02 05:32:36;;;;;;;16.38;7.00;;;;;;;6.58;100.00;101225.22;5061485;28;20041;-72
2023/04/02 05:35:05;;;;;;;17.65;7.65;;;;;;;6.60;100.00;101223.69;5063552;28;20481;-73
2023/04/02 05:37:33;;;;;;;16.63;6.82;;;;;;;6.54;100.00;101227.06;5065560;28;20059;-73
2023/04/02 05:40:12;;;;;;;19.67;8.13;;;;;;;6.54;100.00;101235.31;5064922;28;20037;-73
2023/04/02 05:42:42;;;;;;;16.33;6.80;;;;;;;6.48;100.00;101243.03;5046366;28;20049;-75
2023/04/02 05:45:20;;;;;;;17.73;7.18;;;;;;;6.54;100.00;101247.13;5060376;28;20490;-73
2023/04/02 05:47:50;;;;;;;17.00;7.78;;;;;;;6.54;100.00;101260.06;5061925;28;20056;-74
2023/04/02 05:50:25;;;;;;;17.80;7.28;;;;;;;6.51;100.00;101255.31;5046974;28;20041;-74
2023/04/02 05:53:16;;;;;;;12.88;5.10;;;;;;;6.46;100.00;101267.38;5063347;28;20040;-74
2023/04/02 05:56:00;;;;;;;18.40;7.18;;;;;;;6.48;100.00;101267.00;5062584;28;20044;-73
2023/04/02 05:58:35;;;;;;;13.40;5.45;;;;;;;6.42;100.00;101268.44;5064993;28;20048;-74
2023/04/02 06:01:21;;;;;;;13.48;5.68;;;;;;;6.47;100.00;101279.13;5064427;28;20044;-74
2023/04/02 06:04:15;;;;;;;16.77;6.15;;;;;;;6.40;100.00;101279.78;5062722;28;20422;-73
2023/04/02 06:06:55;;;;;;;18.60;6.45;;;;;;;6.40;100.00;101301.75;5068751;28;20044;-72
2023/04/02 06:09:46;;;;;;;18.45;6.43;;;;;;;6.49;100.00;101309.84;5065268;28;20131;-72
2023/04/02 06:12:18;;;;;;;21.27;7.53;;;;;;;6.51;100.00;101310.28;5064741;28;20059;-72
2023/04/02 06:14:45;;;;;;;16.67;4.75;;;;;;;6.47;100.00;101323.13;5065231;28;20055;-73
2023/04/02 06:17:16;;;;;;;15.48;5.60;;;;;;;6.46;100.00;101327.03;5069806;28;20048;-72
2023/04/02 06:19:44;;;;;;;13.25;4.97;;;;;;;6.41;100.00;101335.56;5069385;28;20118;-72
2023/04/02 06:22:32;;;;;;;16.08;6.75;;;;;;;6.40;100.00;101336.69;5061928;28;20133;-73
2023/04/02 06:25:04;;;;;;;14.98;5.72;;;;;;;6.41;100.00;101347.34;5057543;28;20040;-73
2023/04/02 06:27:32;;;;;;;8.43;3.45;;;;;;;6.47;100.00;101354.16;5065479;28;20510;-72
2023/04/02 06:30:04;;;;;;;14.52;6.25;;;;;;;6.40;100.00;101364.19;5066914;28;20051;-73
2023/04/02 06:32:31;;;;;;;17.58;6.53;;;;;;;6.41;100.00;101372.06;5061693;28;20136;-73
2023/04/02 06:34:57;;;;;;;12.88;5.82;;;;;;;6.33;100.00;101367.56;5049538;28;20048;-73
2023/04/02 06:37:41;;;;;;;13.48;5.85;;;;;;;6.38;100.00;101377.50;5066482;28;20060;-73
2023/04/02 06:40:42;;;;;;;15.02;5.90;;;;;;;6.32;100.00;101381.66;5066745;28;20041;-73
2023/04/02 06:43:41;;;;;;;13.73;5.68;;;;;;;6.42;100.00;101386.63;5066103;28;20493;-75
2023/04/02 06:46:17;;;;;;;15.55;5.28;;;;;;;6.48;100.00;101376.97;5056577;28;20055;-71
2023/04/02 06:48:46;;;;;;;18.55;6.40;;;;;;;6.43;100.00;101383.53;5048263;28;20041;-73
2023/04/02 06:51:15;;;;;;;17.85;5.95;;;;;;;6.47;100.00;101394.59;5048827;28;20060;-73
2023/04/02 06:53:45;;;;;;;13.75;5.85;;;;;;;6.45;100.00;101394.16;5047543;28;20056;-74
2023/04/02 06:56:41;;;;;;;13.98;5.90;;;;;;;6.49;100.00;101403.31;5067934;28;20048;-74
2023/04/02 06:59:08;;;;;;;16.13;5.50;;;;;;;6.52;100.00;101411.63;5067138;28;20048;-74
2023/04/02 07:02:07;;;;;;;11.10;4.22;;;;;;;6.55;100.00;101415.66;5058407;28;20416;-74
2023/04/02 07:04:36;;;;;;;12.30;4.82;;;;;;;6.56;100.00;101420.78;5065721;28;20072;-75
2023/04/02 07:07:03;;;;;;;4.82;2.13;;;;;;;6.51;100.00;101428.50;5070532;28;20105;-73
2023/04/02 07:09:29;;;;;;;12.27;5.00;;;;;;;6.55;100.00;101438.41;5050121;28;20079;-74
2023/04/02 07:11:56;;;;;;;13.98;5.82;;;;;;;6.55;100.00;101443.91;5051049;28;20119;-76
2023/04/02 07:14:22;;;;;;;8.23;2.72;;;;;;;6.59;100.00;101444.03;5065935;28;20044;-75
2023/04/02 07:16:49;;;;;;;11.95;4.85;;;;;;;6.60;100.00;101457.41;5066778;28;20048;-75
2023/04/02 07:19:19;;;;;;;7.90;3.33;;;;;;;6.57;100.00;101462.81;5068512;28;20048;-74
2023/04/02 07:21:46;;;;;;;7.20;3.53;;;;;;;6.54;100.00;101471.75;5053439;28;20131;-74
2023/04/02 07:24:13;;;;;;;10.60;4.65;;;;;;;6.54;100.00;101463.50;5067809;28;20048;-75
2023/04/02 07:26:39;;;;;;;8.20;3.83;;;;;;;6.50;100.00;101465.38;5058567;28;20441;-74
2023/04/02 07:29:07;;;;;;;14.35;4.78;;;;;;;6.60;100.00;101486.84;5041033;28;20054;-73
2023/04/02 07:31:33;;;;;;;14.52;4.25;;;;;;;6.67;100.00;101489.78;5058890;28;20036;-74
2023/04/02 07:34:00;;;;;;;18.48;5.68;;;;;;;6.69;100.00;101487.50;5070458;28;20113;-75
2023/04/02 07:36:28;;;;;;;12.80;4.85;;;;;;;6.61;100.00;101482.97;5067938;28;20132;-75
2023/04/02 07:38:54;;;;;;;16.63;4.47;;;;;;;6.59;100.00;101493.53;5071687;28;20052;-73
2023/04/02 07:41:22;;;;;;;12.30;4.38;;;;;;;6.61;100.00;101505.75;5067679;28;20041;-74
2023/04/02 07:43:49;;;;;;;10.40;4.57;;;;;;;6.71;100.00;101509.94;5067441;28;20156;-75
2023/04/02 07:46:17;;;;;;;10.82;4.05;;;;;;;6.65;100.00;101511.38;5048749;28;20393;-73
2023/04/02 07:48:45;;;;;;;12.95;4.90;;;;;;;6.61;100.00;101513.22;5068249;28;20060;-74
2023/04/02 07:51:15;;;;;;;15.90;4.80;;;;;;;6.59;100.00;101527.31;5069594;28;20131;-74
2023/04/02 07:53:42;;;;;;;17.60;4.88;;;;;;;6.68;100.00;101532.66;5068233;28;20505;-74
2023/04/02 07:56:13;;;;;;;12.60;4.72;;;;;;;6.65;100.00;101528.66;5069479;28;20391;-74
2023/04/02 07:58:39;;;;;;;14.15;5.18;;;;;;;6.63;100.00;101536.47;5072965;28;20060;-73
2023/04/02 08:01:15;;;;;;;9.82;3.60;;;;;;;6.64;100.00;101537.25;5068355;28;20489;-75
2023/04/02 08:03:42;;;;;;;11.57;4.32;;;;;;;6.62;100.00;101539.56;5066617;28;20045;-75
2023/04/02 08:06:08;;;;;;;7.18;3.15;;;;;;;6.71;100.00;101548.44;5060238;28;20040;-75
2023/04/02 08:08:35;;;;;;;7.95;3.40;;;;;;;6.70;100.00;101546.84;5065661;28;20056;-74
2023/04/02 08:11:01;;;;;;;12.98;4.40;;;;;;;6.73;100.00;101554.41;5046433;28;20049;-75
2023/04/02 08:13:28;;;;;;;8.15;4.07;;;;;;;6.71;100.00;101553.94;5045491;28;20058;-75
2023/04/02 08:15:57;;;;;;;4.90;3.17;;;;;;;6.75;100.00;101565.88;5065557;28;20401;-75
2023/04/02 08:18:24;;;;;;;7.72;3.85;;;;;;;6.73;100.00;101577.22;5061038;28;20053;-75
2023/04/02 08:20:52;;;;;;;14.55;4.88;;;;;;;6.69;100.00;101579.06;5058384;28;20052;-74
2023/04/02 08:23:18;;;;;;;12.93;5.72;;;;;;;6.70;100.00;101586.16;5056991;28;20040;-76
2023/04/02 08:25:45;;;;;;;9.35;3.78;;;;;;;6.74;100.00;101597.25;5060946;28;20486;-74
2023/04/02 08:28:12;;;;;;;14.05;3.90;;;;;;;6.79;100.00;101599.78;5066024;28;20052;-75
2023/04/02 08:30:38;;;;;;;8.30;3.90;;;;;;;6.82;100.00;101601.81;5063417;28;20037;-75
2023/04/02 08:33:05;;;;;;;12.82;4.90;;;;;;;6.90;100.00;101611.84;5065791;28;20044;-74
2023/04/02 08:35:32;;;;;;;10.25;3.47;;;;;;;7.01;100.00;101615.69;5048536;28;20854;-75
2023/04/02 08:38:00;;;;;;;8.80;3.58;;;;;;;7.08;100.00;101607.63;5062312;28;20410;-75
2023/04/02 08:40:37;;;;;;;9.90;3.22;;;;;;;7.06;100.00;101610.75;5064599;28;20041;-75
2023/04/02 08:43:37;;;;;;;17.35;4.13;;;;;;;7.12;100.00;101625.06;5063318;28;20063;-73
2023/04/02 08:46:33;;;;;;;12.30;3.67;;;;;;;7.23;100.00;101617.88;5065503;28;20113;-74
2023/04/02 08:49:03;;;;;;;10.82;4.50;;;;;;;7.26;100.00;101628.19;5048321;28;20499;-74
2023/04/02 08:51:34;;;;;;;11.85;4.28;;;;;;;7.31;100.00;101633.44;5063744;28;20040;-75
2023/04/02 08:54:07;;;;;;;14.05;3.95;;;;;;;7.36;100.00;101635.94;5065999;28;20052;-75
2023/04/02 08:56:48;;;;;;;12.48;4.53;;;;;;;7.34;100.00;101641.78;5067394;28;20048;-74
2023/04/02 08:59:26;;;;;;;5.88;1.98;;;;;;;7.26;100.00;101647.47;5067713;28;20087;-75
2023/04/02 09:02:10;;;;;;;5.70;3.13;;;;;;;7.44;100.00;101654.22;5060920;28;20052;-75
2023/04/02 09:04:37;;;;;;;5.25;2.33;;;;;;;7.51;100.00;101662.69;5064778;28;20067;-74
2023/04/02 09:07:04;;;;;;;11.98;4.05;;;;;;;7.57;100.00;101670.31;5063763;28;20469;-74
2023/04/02 09:09:36;;;;;;;11.43;3.78;;;;;;;7.56;100.00;101676.22;5055505;28;20063;-75
2023/04/02 09:12:06;;;;;;;10.13;4.35;;;;;;;7.55;100.00;101671.81;5059923;28;20044;-75
2023/04/02 09:14:43;;;;;;;10.38;4.25;;;;;;;7.65;100.00;101683.13;5056002;28;20052;-75
2023/04/02 09:17:18;;;;;;;13.65;4.47;;;;;;;7.73;100.00;101687.66;5059797;28;21940;-75
2023/04/02 09:19:50;;;;;;;7.20;3.33;;;;;;;7.71;100.00;101684.47;5057546;28;20052;-74
2023/04/02 09:22:23;;;;;;;9.77;2.88;;;;;;;7.59;100.00;101690.06;5060466;28;20090;-74
2023/04/02 09:24:58;;;;;;;4.88;2.80;;;;;;;7.72;100.00;101705.34;5057923;28;20489;-76
2023/04/02 09:27:28;;;;;;;8.88;3.65;;;;;;;7.72;100.00;101708.09;5063215;28;20053;-74
2023/04/02 09:30:16;;;;;;;5.93;3.15;;;;;;;7.75;100.00;101709.34;5061758;28;20786;-73
2023/04/02 09:32:46;;;;;;;11.60;3.72;;;;;;;7.83;100.00;101713.88;5044395;28;20238;-74
2023/04/02 09:35:25;;;;;;;9.85;4.15;;;;;;;7.78;100.00;101720.47;5057357;28;20048;-75
2023/04/02 09:38:29;;;;;;;8.90;3.20;;;;;;;7.76;100.00;101722.78;5064922;28;20056;-74
2023/04/02 09:41:04;;;;;;;12.82;4.38;;;;;;;7.74;100.00;101730.56;5061272;28;20471;-74
2023/04/02 09:43:34;;;;;;;14.00;4.47;;;;;;;7.78;100.00;101725.19;5057671;28;20148;-74
2023/04/02 09:46:11;;;;;;;11.20;4.53;;;;;;;7.87;100.00;101747.84;5061813;28;20156;-74
2023/04/02 09:48:52;;;;;;;18.40;5.53;;;;;;;7.91;100.00;101734.97;5060770;28;20053;-74
2023/04/02 09:51:21;;;;;;;7.72;3.40;;;;;;;7.95;100.00;101746.88;5056283;28;20064;-75
2023/04/02 09:54:03;;;;;;;14.38;5.15;;;;;;;8.06;100.00;101742.44;5037373;28;20045;-74
2023/04/02 09:56:38;;;;;;;14.15;3.83;;;;;;;8.09;100.00;101750.00;5062679;28;20048;-75
2023/04/02 09:59:05;;;;;;;15.05;4.72;;;;;;;8.11;100.00;101764.22;5060407;28;20091;-74
2023/04/02 10:01:38;;;;;;;10.35;3.55;;;;;;;8.00;100.00;101769.47;5042778;28;20414;-73
2023/04/02 10:04:43;;;;;;;6.45;2.85;;;;;;;8.06;100.00;101764.47;5064153;28;20056;-74
2023/04/02 10:07:33;;;;;;;12.35;4.10;;;;;;;8.09;100.00;101771.25;5047049;28;20048;-74
2023/04/02 10:10:22;;;;;;;10.50;3.72;;;;;;;8.11;100.00;101785.47;5066456;28;20040;-74
2023/04/02 10:12:56;;;;;;;6.88;2.85;;;;;;;8.08;100.00;101784.22;5065519;28;20131;-73
2023/04/02 10:15:30;;;;;;;8.02;3.67;;;;;;;8.03;100.00;101781.72;5057478;28;20515;-72
2023/04/02 10:18:11;;;;;;;5.18;2.72;;;;;;;8.01;100.00;101786.81;5060813;28;20049;-74
2023/04/02 10:20:40;;;;;;;11.05;3.88;;;;;;;8.02;100.00;101794.72;5063769;28;20499;-74
2023/04/02 10:23:18;;;;;;;6.82;3.40;;;;;;;8.11;100.00;101805.59;5064471;28;20049;-74
2023/04/02 10:25:56;;;;;;;6.93;3.08;;;;;;;8.01;100.00;101812.41;5063713;28;20139;-74
2023/04/02 10:28:47;;;;;;;10.45;3.35;;;;;;;8.03;100.00;101803.78;5059960;28;20056;-75
2023/04/02 10:31:25;;;;;;;9.48;2.67;;;;;;;7.99;100.00;101819.41;5064245;28;20052;-74
2023/04/02 10:34:02;;;;;;;8.93;3.38;;;;;;;8.09;100.00;101827.16;5074113;28;20131;-74
2023/04/02 10:36:38;;;;;;;10.50;3.28;;;;;;;7.91;100.00;101823.94;5066274;28;20639;-73
2023/04/02 10:39:33;;;;;;;4.20;1.92;;;;;;;7.98;100.00;101831.59;5064296;28;20473;-75
2023/04/02 10:42:05;;;;;;;7.10;2.60;;;;;;;8.01;100.00;101830.91;5062945;28;20504;-74
2023/04/02 10:45:03;;;;;;;8.85;3.47;;;;;;;8.11;100.00;101841.41;5068632;28;20525;-73
2023/04/02 10:48:03;;;;;;;9.43;4.13;;;;;;;8.11;100.00;101844.19;5065924;28;20645;-75
2023/04/02 10:50:43;;;;;;;6.35;3.00;;;;;;;8.15;100.00;101850.56;5066287;28;20056;-74
2023/04/02 10:53:26;;;;;;;4.53;2.22;;;;;;;8.04;100.00;101847.53;5069228;28;20063;-74
2023/04/02 10:56:03;;;;;;;8.15;2.95;;;;;;;8.10;100.00;101856.34;5070240;28;20048;-74
2023/04/02 10:58:36;;;;;;;9.15;3.15;;;;;;;8.19;100.00;101853.41;5074436;28;20517;-74
2023/04/02 11:01:15;;;;;;;5.80;2.90;;;;;;;8.17;100.00;101864.81;5070099;28;20055;-75
2023/04/02 11:03:48;;;;;;;4.80;2.05;;;;;;;8.04;100.00;101861.31;5069182;28;20201;-74
2023/04/02 11:06:31;;;;;;;5.75;2.67;;;;;;;8.17;100.00;101859.31;5061833;28;20060;-75
2023/04/02 11:09:03;;;;;;;10.85;3.20;;;;;;;8.18;100.00;101871.94;5055521;28;20051;-76
2023/04/02 11:11:37;;;;;;;6.70;3.00;;;;;;;8.23;100.00;101885.47;5066413;28;20040;-74
2023/04/02 11:14:14;;;;;;;8.98;3.08;;;;;;;8.32;100.00;101888.88;5068052;28;20123;-74
2023/04/02 11:16:42;;;;;;;8.48;3.28;;;;;;;8.45;100.00;101889.59;5051199;28;20062;-74
2023/04/02 11:19:16;;;;;;;4.75;2.13;;;;;;;8.39;100.00;101888.25;5065386;28;20139;-75
2023/04/02 11:21:44;;;;;;;6.75;2.50;;;;;;;8.49;100.00;101904.28;5050097;28;20534;-73
2023/04/02 11:24:35;;;;;;;8.23;3.08;;;;;;;8.45;100.00;101904.19;5062452;28;20056;-74
2023/04/02 11:27:11;;;;;;;5.55;2.22;;;;;;;8.40;100.00;101901.69;5067914;28;20084;-72
2023/04/02 11:29:48;;;;;;;7.18;3.13;;;;;;;8.53;100.00;101905.97;5058038;28;20063;-75
2023/04/02 11:32:14;;;;;;;8.60;3.03;;;;;;;8.62;100.00;101920.41;5067979;28;21725;-74
2023/04/02 11:34:41;;;;;;;6.32;2.40;;;;;;;8.71;100.00;101918.25;5065406;28;20049;-74
2023/04/02 11:37:28;;;;;;;7.30;2.97;;;;;;;8.74;100.00;101923.06;5066122;28;20046;-75
2023/04/02 11:39:58;;;;;;;8.32;2.90;;;;;;;8.64;100.00;101920.84;5062342;28;20053;-75
2023/04/02 11:42:28;;;;;;;2.90;1.50;;;;;;;8.60;100.00;101922.72;5059158;28;20147;-73
2023/04/02 11:44:59;;;;;;;4.25;2.50;;;;;;;8.62;100.00;101920.41;5068431;28;20045;-74
2023/04/02 11:47:28;;;;;;;5.22;2.22;;;;;;;8.54;100.00;101926.09;5061668;28;20044;-75
2023/04/02 11:49:59;;;;;;;5.35;2.78;;;;;;;8.59;100.00;101931.34;5064138;28;20053;-76
2023/04/02 11:52:36;;;;;;;5.18;2.47;;;;;;;8.59;100.00;101937.66;5066184;28;20076;-73
2023/04/02 11:55:26;;;;;;;9.23;2.58;;;;;;;8.68;100.00;101938.31;5063449;28;20080;-73
2023/04/02 11:58:25;;;;;;;6.88;2.65;;;;;;;8.67;100.00;101933.94;5055504;28;20087;-73
2023/04/02 12:01:28;;;;;;;8.38;2.95;;;;;;;8.68;100.00;101945.78;5033110;28;20048;-74